createdAt,value
2017-09-04T00:00:55.050Z,12.30
2017-09-04T00:03:21.342Z,12.40
2017-09-04T00:05:47.628Z,11.80
2017-09-04T00:08:13.868Z,11.70
2017-09-04T00:10:40.137Z,11.30
2017-09-04T00:13:06.435Z,10.80
2017-09-04T00:15:32.738Z,10.50
2017-09-04T00:17:58.993Z,10.20
2017-09-04T00:20:25.303Z,10.20
2017-09-04T00:22:51.566Z,10.90
2017-09-04T00:25:17.844Z,11.50
2017-09-04T00:27:44.115Z,11.70
2017-09-04T00:30:10.395Z,11.80
2017-09-04T00:32:36.669Z,11.90
2017-09-04T00:35:02.951Z,12.00
2017-09-04T00:37:29.221Z,12.20
2017-09-04T00:39:55.500Z,12.30
2017-09-04T00:42:21.763Z,12.30
2017-09-04T00:44:48.030Z,12.20
2017-09-04T00:47:14.319Z,12.10
2017-09-04T00:49:40.585Z,12.00
2017-09-04T00:52:07.510Z,11.80
2017-09-04T00:54:33.804Z,11.20
2017-09-04T00:57:00.091Z,10.70
2017-09-04T00:59:26.405Z,10.70
2017-09-04T01:01:52.662Z,11.20
2017-09-04T01:04:18.960Z,11.60
2017-09-04T01:06:45.231Z,11.60
2017-09-04T01:09:12.556Z,11.30
2017-09-04T01:11:38.859Z,10.50
2017-09-04T01:14:05.156Z,10.70
2017-09-04T01:16:31.447Z,11.20
2017-09-04T01:18:57.716Z,11.40
2017-09-04T01:21:23.973Z,11.60
2017-09-04T01:23:50.233Z,11.90
2017-09-04T01:26:16.519Z,11.90
2017-09-04T01:28:42.760Z,11.90
2017-09-04T01:31:09.020Z,11.80
2017-09-04T01:33:35.296Z,11.70
2017-09-04T01:36:01.581Z,11.70
2017-09-04T01:38:27.833Z,11.70
2017-09-04T01:40:54.104Z,11.70
2017-09-04T01:43:20.355Z,11.70
2017-09-04T01:45:46.637Z,11.60
2017-09-04T01:48:13.748Z,11.00
2017-09-04T01:50:40.004Z,10.80
2017-09-04T01:53:06.279Z,11.20
2017-09-04T01:55:32.559Z,11.40
2017-09-04T01:57:58.827Z,11.70
2017-09-04T02:00:25.098Z,11.80
2017-09-04T02:02:51.399Z,11.70
2017-09-04T02:05:17.670Z,11.70
2017-09-04T02:07:43.955Z,11.40
2017-09-04T02:10:11.084Z,11.20
2017-09-04T02:12:37.383Z,11.30
2017-09-04T02:15:03.657Z,11.60
2017-09-04T02:17:29.936Z,11.70
2017-09-04T02:19:56.200Z,11.80
2017-09-04T02:22:22.474Z,11.10
2017-09-04T02:24:48.739Z,11.30
2017-09-04T02:27:15.005Z,11.60
2017-09-04T02:29:41.274Z,11.70
2017-09-04T02:32:07.524Z,11.70
2017-09-04T02:34:33.776Z,11.70
2017-09-04T02:37:00.048Z,11.80
2017-09-04T02:39:26.381Z,11.40
2017-09-04T02:41:52.635Z,11.40
2017-09-04T02:44:18.901Z,11.60
2017-09-04T02:46:45.179Z,11.60
2017-09-04T02:49:11.449Z,11.70
2017-09-04T02:51:37.716Z,11.60
2017-09-04T02:54:04.001Z,11.70
2017-09-04T02:56:30.269Z,11.70
2017-09-04T02:58:56.558Z,11.40
2017-09-04T03:01:22.810Z,11.10
2017-09-04T03:03:49.116Z,10.90
2017-09-04T03:06:15.369Z,11.30
2017-09-04T03:08:41.644Z,11.50
2017-09-04T03:11:07.929Z,11.50
2017-09-04T03:13:34.184Z,11.60
2017-09-04T03:16:00.476Z,11.40
2017-09-04T03:18:26.725Z,11.50
2017-09-04T03:20:53.099Z,11.30
2017-09-04T03:23:19.389Z,11.50
2017-09-04T03:25:45.686Z,11.50
2017-09-04T03:28:11.980Z,11.50
2017-09-04T03:30:38.366Z,11.40
2017-09-04T03:33:04.669Z,11.40
2017-09-04T03:35:30.976Z,11.30
2017-09-04T03:37:57.264Z,11.20
2017-09-04T03:40:23.557Z,11.10
2017-09-04T03:42:49.881Z,10.90
2017-09-04T03:45:16.198Z,10.90
2017-09-04T03:47:42.506Z,11.00
2017-09-04T03:50:08.788Z,10.50
2017-09-04T03:52:35.097Z,10.40
2017-09-04T03:55:01.398Z,10.80
2017-09-04T03:57:27.700Z,11.10
2017-09-04T03:59:53.991Z,11.10
2017-09-04T04:02:20.297Z,11.20
2017-09-04T04:04:46.568Z,11.20
2017-09-04T04:07:12.892Z,11.20
2017-09-04T04:09:39.172Z,11.00
2017-09-04T04:12:05.457Z,11.00
2017-09-04T04:14:31.752Z,11.30
2017-09-04T04:16:58.033Z,11.20
2017-09-04T04:19:24.386Z,11.10
2017-09-04T04:21:50.698Z,11.00
2017-09-04T04:24:16.990Z,11.00
2017-09-04T04:26:43.267Z,11.00
2017-09-04T04:29:09.568Z,11.00
2017-09-04T04:31:35.879Z,11.00
2017-09-04T04:34:02.317Z,10.20
2017-09-04T04:36:28.620Z,9.90
2017-09-04T04:38:54.937Z,10.10
2017-09-04T04:41:21.192Z,10.50
2017-09-04T04:43:47.467Z,10.60
2017-09-04T04:46:13.734Z,10.60
2017-09-04T04:48:40.008Z,10.80
2017-09-04T04:51:06.311Z,10.70
2017-09-04T04:53:32.601Z,10.80
2017-09-04T04:55:58.911Z,10.80
2017-09-04T04:58:25.204Z,10.70
2017-09-04T05:00:51.476Z,10.60
2017-09-04T05:03:17.765Z,10.80
2017-09-04T05:05:44.119Z,10.70
2017-09-04T05:08:10.463Z,10.60
2017-09-04T05:10:36.757Z,10.60
2017-09-04T05:13:03.072Z,10.80
2017-09-04T05:15:29.358Z,11.10
2017-09-04T05:17:55.631Z,11.30
2017-09-04T05:20:21.946Z,11.30
2017-09-04T05:22:48.210Z,11.40
2017-09-04T05:25:14.514Z,11.30
2017-09-04T05:27:40.814Z,11.40
2017-09-04T05:30:07.102Z,11.40
2017-09-04T05:32:33.395Z,11.20
2017-09-04T05:34:59.666Z,11.40
2017-09-04T05:37:25.964Z,11.30
2017-09-04T05:39:52.246Z,11.00
2017-09-04T05:42:18.577Z,10.70
2017-09-04T05:44:44.837Z,10.90
2017-09-04T05:47:11.141Z,11.20
2017-09-04T05:49:37.446Z,11.40
2017-09-04T05:52:03.724Z,11.60
2017-09-04T05:54:30.042Z,11.80
2017-09-04T05:56:56.341Z,11.60
2017-09-04T05:59:22.625Z,11.70
2017-09-04T06:01:48.941Z,11.60
2017-09-04T06:04:15.241Z,11.30
2017-09-04T06:06:41.523Z,11.60
2017-09-04T06:09:07.845Z,11.50
2017-09-04T06:11:34.134Z,11.60
2017-09-04T06:14:00.439Z,11.70
2017-09-04T06:16:26.771Z,11.80
2017-09-04T06:18:53.085Z,11.70
2017-09-04T06:21:19.401Z,11.50
2017-09-04T06:23:45.729Z,11.50
2017-09-04T06:26:12.000Z,11.50
2017-09-04T06:28:38.306Z,11.40
2017-09-04T06:31:04.603Z,11.60
2017-09-04T06:33:30.898Z,11.80
2017-09-04T06:35:57.203Z,11.80
2017-09-04T06:38:23.483Z,11.60
2017-09-04T06:40:49.759Z,11.60
2017-09-04T06:43:16.033Z,11.70
2017-09-04T06:45:42.319Z,12.00
2017-09-04T06:48:08.631Z,12.10
2017-09-04T06:50:34.950Z,12.40
2017-09-04T06:53:01.215Z,12.50
2017-09-04T06:55:27.522Z,12.50
2017-09-04T06:57:53.917Z,12.50
2017-09-04T07:00:20.219Z,12.60
2017-09-04T07:02:46.516Z,12.80
2017-09-04T07:05:12.771Z,12.80
2017-09-04T07:07:39.049Z,13.00
2017-09-04T07:10:05.363Z,13.10
2017-09-04T07:12:31.666Z,13.30
2017-09-04T07:14:57.933Z,13.30
2017-09-04T07:17:24.219Z,13.50
2017-09-04T07:19:50.511Z,13.60
2017-09-04T07:22:16.811Z,13.70
2017-09-04T07:24:43.112Z,13.70
2017-09-04T07:27:09.415Z,13.70
2017-09-04T07:29:35.751Z,13.80
2017-09-04T07:32:02.037Z,13.90
2017-09-04T07:34:28.315Z,13.90
2017-09-04T07:36:54.621Z,14.00
2017-09-04T07:39:20.920Z,14.10
2017-09-04T07:41:47.195Z,14.30
2017-09-04T07:44:13.493Z,14.40
2017-09-04T07:46:39.769Z,14.30
2017-09-04T07:49:06.056Z,14.40
2017-09-04T07:51:32.328Z,14.40
2017-09-04T07:53:58.610Z,14.50
2017-09-04T07:56:24.937Z,14.60
2017-09-04T07:58:51.270Z,14.50
2017-09-04T08:01:17.565Z,14.60
2017-09-04T08:03:43.836Z,14.80
2017-09-04T08:06:10.137Z,14.90
2017-09-04T08:08:36.456Z,14.80
2017-09-04T08:11:02.745Z,14.80
2017-09-04T08:13:29.009Z,15.00
2017-09-04T08:15:55.321Z,15.00
2017-09-04T08:18:21.623Z,15.10
2017-09-04T08:20:48.012Z,15.20
2017-09-04T08:23:14.303Z,15.30
2017-09-04T08:25:40.606Z,15.40
2017-09-04T08:28:06.866Z,15.40
2017-09-04T08:30:33.468Z,15.40
2017-09-04T08:32:59.761Z,15.50
2017-09-04T08:35:26.035Z,15.60
2017-09-04T08:37:52.352Z,15.60
2017-09-04T08:40:18.650Z,15.60
2017-09-04T08:42:44.965Z,15.70
2017-09-04T08:45:11.254Z,15.90
2017-09-04T08:47:37.550Z,15.80
2017-09-04T08:50:03.852Z,15.80
2017-09-04T08:52:30.166Z,15.80
2017-09-04T08:54:56.466Z,15.90
2017-09-04T08:57:22.782Z,16.00
2017-09-04T08:59:49.090Z,16.00
2017-09-04T09:02:15.421Z,16.10
2017-09-04T09:04:41.788Z,16.10
2017-09-04T09:07:08.092Z,16.10
2017-09-04T09:09:34.419Z,16.00
2017-09-04T09:12:00.754Z,16.10
2017-09-04T09:14:27.103Z,16.20
2017-09-04T09:16:53.909Z,16.30
2017-09-04T09:19:20.225Z,16.20
2017-09-04T09:21:46.549Z,16.30
2017-09-04T09:24:12.861Z,16.50
2017-09-04T09:26:39.167Z,16.60
2017-09-04T09:29:05.509Z,16.50
2017-09-04T09:31:31.818Z,16.60
2017-09-04T09:33:58.133Z,16.50
2017-09-04T09:36:24.418Z,16.60
2017-09-04T09:38:50.725Z,16.80
2017-09-04T09:41:17.028Z,16.80
2017-09-04T09:43:43.320Z,16.90
2017-09-04T09:46:09.602Z,16.80
2017-09-04T09:48:35.892Z,16.90
2017-09-04T09:51:03.007Z,16.80
2017-09-04T09:53:29.354Z,16.80
2017-09-04T09:55:55.691Z,16.90
2017-09-04T09:58:21.982Z,17.00
2017-09-04T10:00:48.306Z,17.10
2017-09-04T10:03:14.605Z,17.10
2017-09-04T10:05:41.000Z,17.10
2017-09-04T10:08:07.336Z,17.10
2017-09-04T10:10:33.636Z,17.20
2017-09-04T10:12:59.934Z,17.30
2017-09-04T10:15:26.224Z,17.40
2017-09-04T10:17:52.575Z,17.50
2017-09-04T10:20:18.891Z,17.60
2017-09-04T10:22:45.214Z,17.70
2017-09-04T10:25:11.542Z,17.70
2017-09-04T10:27:37.845Z,17.60
2017-09-04T10:30:04.153Z,17.60
2017-09-04T10:32:30.445Z,17.70
2017-09-04T10:34:56.764Z,17.70
2017-09-04T10:37:23.102Z,17.70
2017-09-04T10:39:49.401Z,17.60
2017-09-04T10:42:15.716Z,17.80
2017-09-04T10:44:42.036Z,17.80
2017-09-04T10:47:08.356Z,18.00
2017-09-04T10:49:34.660Z,17.80
2017-09-04T10:52:00.962Z,17.70
2017-09-04T10:54:27.264Z,17.80
2017-09-04T10:56:53.570Z,17.90
2017-09-04T10:59:19.915Z,17.90
2017-09-04T11:01:46.233Z,18.00
2017-09-04T11:04:12.535Z,17.90
2017-09-04T11:06:38.836Z,17.90
2017-09-04T11:09:05.137Z,17.90
2017-09-04T11:11:31.453Z,17.90
2017-09-04T11:13:57.852Z,17.70
2017-09-04T11:16:24.188Z,17.60
2017-09-04T11:18:50.505Z,17.70
2017-09-04T11:21:16.834Z,17.70
2017-09-04T11:23:43.236Z,17.90
2017-09-04T11:26:09.650Z,18.10
2017-09-04T11:28:35.969Z,18.20
2017-09-04T11:31:02.286Z,18.10
2017-09-04T11:33:28.596Z,18.20
2017-09-04T11:35:54.912Z,18.20
2017-09-04T11:38:21.235Z,18.10
2017-09-04T11:40:47.529Z,18.00
2017-09-04T11:43:13.825Z,18.00
2017-09-04T11:45:40.135Z,18.20
2017-09-04T11:48:06.408Z,18.10
2017-09-04T11:50:32.685Z,18.10
2017-09-04T11:52:58.969Z,18.20
2017-09-04T11:55:32.150Z,18.20
2017-09-04T11:57:58.481Z,18.40
2017-09-04T12:00:24.821Z,18.20
2017-09-04T12:02:51.117Z,18.40
2017-09-04T12:05:17.418Z,18.60
2017-09-04T12:07:43.744Z,18.90
2017-09-04T12:10:10.088Z,18.90
2017-09-04T12:12:36.385Z,18.80
2017-09-04T12:15:02.743Z,18.90
2017-09-04T12:17:29.046Z,18.90
2017-09-04T12:19:55.367Z,18.90
2017-09-04T12:22:21.646Z,19.00
2017-09-04T12:24:47.974Z,19.10
2017-09-04T12:27:14.268Z,19.10
2017-09-04T12:29:40.549Z,19.10
2017-09-04T12:32:06.840Z,19.10
2017-09-04T12:34:33.130Z,18.90
2017-09-04T12:36:59.415Z,18.90
2017-09-04T12:39:25.695Z,19.10
2017-09-04T12:41:51.991Z,19.30
2017-09-04T12:44:18.284Z,19.30
2017-09-04T12:46:44.609Z,19.10
2017-09-04T12:49:10.941Z,18.90
2017-09-04T12:51:37.231Z,19.00
2017-09-04T12:54:03.540Z,19.10
2017-09-04T12:56:29.829Z,19.20
2017-09-04T12:58:56.120Z,19.50
2017-09-04T13:01:22.416Z,19.70
2017-09-04T13:03:48.717Z,19.90
2017-09-04T13:06:14.991Z,20.00
2017-09-04T13:08:41.305Z,20.20
2017-09-04T13:11:15.584Z,20.30
2017-09-04T13:13:43.751Z,20.10
2017-09-04T13:16:29.005Z,20.00
2017-09-04T13:19:04.921Z,19.70
2017-09-04T13:21:38.308Z,19.80
2017-09-04T13:24:10.663Z,19.80
2017-09-04T13:26:40.803Z,19.90
2017-09-04T13:29:24.094Z,20.00
2017-09-04T13:31:56.337Z,20.10
2017-09-04T13:34:28.842Z,20.40
2017-09-04T13:37:13.960Z,20.90
2017-09-04T13:39:55.319Z,20.60
2017-09-04T13:42:27.736Z,20.00
2017-09-04T13:45:00.062Z,19.60
2017-09-04T13:47:31.487Z,19.60
2017-09-04T13:50:06.691Z,20.10
2017-09-04T13:52:49.780Z,20.30
2017-09-04T13:55:22.172Z,20.60
2017-09-04T13:57:54.713Z,20.90
2017-09-04T14:00:27.298Z,21.30
2017-09-04T14:02:55.509Z,21.70
2017-09-04T14:05:28.688Z,21.90
2017-09-04T14:08:01.123Z,21.80
2017-09-04T14:10:43.279Z,21.70
2017-09-04T14:13:24.521Z,21.30
2017-09-04T14:15:56.989Z,21.00
2017-09-04T14:18:23.351Z,20.50
2017-09-04T14:20:49.681Z,20.00
2017-09-04T14:23:16.006Z,20.00
2017-09-04T14:25:42.295Z,19.80
2017-09-04T14:28:08.618Z,19.80
2017-09-04T14:30:34.972Z,19.70
2017-09-04T14:33:01.274Z,19.60
2017-09-04T14:35:27.602Z,19.70
2017-09-04T14:37:53.937Z,20.80
2017-09-04T14:40:20.321Z,21.10
2017-09-04T14:42:46.965Z,21.90
2017-09-04T14:45:14.197Z,22.30
2017-09-04T14:47:40.518Z,22.40
2017-09-04T14:50:06.851Z,21.50
2017-09-04T14:52:33.201Z,20.60
2017-09-04T14:54:59.530Z,20.30
2017-09-04T14:57:25.880Z,20.20
2017-09-04T14:59:52.177Z,20.20
2017-09-04T15:02:18.548Z,20.20
2017-09-04T15:04:44.871Z,20.30
2017-09-04T15:07:11.177Z,21.70
2017-09-04T15:09:37.488Z,22.90
2017-09-04T15:12:03.812Z,24.00
2017-09-04T15:14:30.111Z,24.30
2017-09-04T15:16:56.386Z,23.90
2017-09-04T15:19:22.680Z,24.40
2017-09-04T15:21:49.032Z,25.70
2017-09-04T15:24:15.354Z,25.00
2017-09-04T15:26:41.652Z,24.40
2017-09-04T15:29:07.949Z,24.10
2017-09-04T15:31:34.258Z,25.20
2017-09-04T15:34:00.561Z,25.20
2017-09-04T15:36:26.840Z,25.30
2017-09-04T15:38:53.140Z,25.90
2017-09-04T15:41:19.467Z,25.90
2017-09-04T15:43:45.824Z,24.80
2017-09-04T15:46:12.144Z,23.60
2017-09-04T15:48:38.457Z,22.60
2017-09-04T15:51:04.786Z,21.70
2017-09-04T15:53:31.150Z,21.50
2017-09-04T15:55:57.482Z,21.50
2017-09-04T15:58:23.778Z,21.60
2017-09-04T16:00:50.924Z,22.80
2017-09-04T16:03:17.242Z,23.30
2017-09-04T16:06:02.499Z,22.80
2017-09-04T16:08:28.824Z,21.90
2017-09-04T16:10:55.140Z,22.10
2017-09-04T16:13:23.399Z,21.80
2017-09-04T16:15:49.733Z,21.50
2017-09-04T16:18:16.053Z,22.00
2017-09-04T16:20:45.281Z,22.90
2017-09-04T16:23:30.542Z,22.80
2017-09-04T16:25:57.840Z,23.10
2017-09-04T16:28:26.389Z,23.90
2017-09-04T16:30:52.699Z,24.50
2017-09-04T16:33:25.024Z,25.00
2017-09-04T16:35:52.379Z,25.10
2017-09-04T16:38:18.790Z,24.70
2017-09-04T16:40:45.095Z,24.40
2017-09-04T16:43:12.246Z,23.50
2017-09-04T16:45:39.388Z,23.00
2017-09-04T16:48:08.637Z,22.90
2017-09-04T16:50:34.935Z,23.60
2017-09-04T16:53:03.129Z,23.50
2017-09-04T16:55:32.495Z,23.60
2017-09-04T16:57:58.840Z,23.40
2017-09-04T17:00:25.168Z,23.60
2017-09-04T17:02:51.567Z,23.80
2017-09-04T17:05:17.877Z,24.10
2017-09-04T17:07:44.346Z,24.20
2017-09-04T17:10:14.050Z,24.20
2017-09-04T17:12:40.730Z,24.30
2017-09-04T17:15:07.088Z,23.50
2017-09-04T17:17:35.290Z,22.80
2017-09-04T17:20:07.034Z,22.20
2017-09-04T17:22:35.322Z,21.70
2017-09-04T17:25:02.605Z,21.80
2017-09-04T17:27:29.003Z,21.50
2017-09-04T17:29:55.357Z,21.50
2017-09-04T17:32:21.673Z,21.70
2017-09-04T17:34:48.007Z,21.60
2017-09-04T17:37:15.282Z,21.50
2017-09-04T17:39:42.361Z,20.80
2017-09-04T17:42:08.706Z,20.70
2017-09-04T17:44:35.024Z,20.40
2017-09-04T17:47:01.340Z,19.90
2017-09-04T17:49:28.504Z,19.60
2017-09-04T17:51:54.812Z,19.60
2017-09-04T17:54:22.193Z,19.40
2017-09-04T17:56:48.491Z,19.20
2017-09-04T17:59:14.994Z,19.10
2017-09-04T18:01:42.975Z,19.00
2017-09-04T18:04:09.312Z,18.80
2017-09-04T18:06:36.514Z,18.90
2017-09-04T18:09:02.863Z,18.60
2017-09-04T18:11:29.173Z,18.40
2017-09-04T18:13:56.302Z,18.10
2017-09-04T18:16:23.435Z,18.20
2017-09-04T18:18:52.403Z,18.00
2017-09-04T18:21:18.761Z,17.90
2017-09-04T18:23:45.070Z,17.50
2017-09-04T18:26:12.416Z,17.40
2017-09-04T18:28:38.748Z,17.60
2017-09-04T18:31:05.061Z,17.60
2017-09-04T18:33:33.204Z,17.60
2017-09-04T18:35:59.495Z,17.50
2017-09-04T18:38:25.772Z,17.40
2017-09-04T18:40:53.565Z,17.50
2017-09-04T18:43:19.948Z,17.20
2017-09-04T18:45:46.752Z,17.30
2017-09-04T18:48:13.230Z,17.50
2017-09-04T18:50:40.385Z,17.30
2017-09-04T18:53:06.796Z,17.20
2017-09-04T18:55:33.100Z,17.00
2017-09-04T18:57:59.429Z,17.10
2017-09-04T19:00:25.760Z,17.20
2017-09-04T19:02:52.124Z,16.90
2017-09-04T19:05:18.668Z,17.20
2017-09-04T19:07:45.847Z,16.90
2017-09-04T19:10:12.186Z,17.00
2017-09-04T19:12:39.002Z,16.70
2017-09-04T19:15:05.323Z,16.80
2017-09-04T19:17:31.728Z,16.60
2017-09-04T19:19:58.758Z,16.70
2017-09-04T19:22:25.042Z,16.60
2017-09-04T19:24:51.379Z,16.60
2017-09-04T19:27:17.665Z,16.40
2017-09-04T19:29:45.079Z,16.60
2017-09-04T19:32:12.141Z,16.50
2017-09-04T19:34:38.431Z,16.30
2017-09-04T19:37:04.975Z,15.90
2017-09-04T19:39:31.269Z,15.90
2017-09-04T19:41:57.530Z,16.00
2017-09-04T19:44:23.848Z,16.20
2017-09-04T19:46:50.130Z,16.00
2017-09-04T19:49:16.851Z,15.90
2017-09-04T19:51:43.145Z,15.70
2017-09-04T19:54:09.433Z,15.60
2017-09-04T19:56:35.729Z,15.90
2017-09-04T19:59:02.089Z,15.70
2017-09-04T20:01:29.640Z,15.60
2017-09-04T20:03:55.935Z,15.60
2017-09-04T20:06:22.266Z,15.60
2017-09-04T20:08:48.549Z,15.60
2017-09-04T20:11:14.911Z,15.60
2017-09-04T20:13:41.242Z,15.30
2017-09-04T20:16:07.534Z,15.40
2017-09-04T20:18:33.814Z,15.40
2017-09-04T20:21:00.123Z,15.40
2017-09-04T20:23:26.413Z,15.80
2017-09-04T20:25:52.721Z,15.60
2017-09-04T20:28:19.033Z,15.50
2017-09-04T20:30:46.114Z,15.70
2017-09-04T20:33:12.440Z,15.60
2017-09-04T20:35:39.548Z,15.10
2017-09-04T20:38:06.848Z,15.00
2017-09-04T20:40:33.265Z,15.10
2017-09-04T20:42:59.776Z,15.20
2017-09-04T20:45:26.041Z,15.60
2017-09-04T20:47:52.325Z,15.50
2017-09-04T20:50:18.643Z,15.30
2017-09-04T20:52:45.669Z,15.20
2017-09-04T20:55:11.966Z,15.20
2017-09-04T20:57:38.871Z,15.00
2017-09-04T21:00:06.007Z,14.60
2017-09-04T21:02:32.294Z,14.80
2017-09-04T21:04:58.646Z,14.80
2017-09-04T21:07:24.909Z,14.80
2017-09-04T21:09:51.217Z,14.90
2017-09-04T21:12:17.501Z,14.70
2017-09-04T21:14:43.837Z,14.70
2017-09-04T21:17:10.134Z,14.90
2017-09-04T21:19:36.422Z,14.80
2017-09-04T21:22:02.729Z,14.60
2017-09-04T21:24:29.023Z,14.60
2017-09-04T21:26:55.317Z,14.60
2017-09-04T21:29:22.758Z,14.60
2017-09-04T21:31:49.037Z,14.50
2017-09-04T21:34:15.355Z,14.20
2017-09-04T21:36:43.688Z,14.30
2017-09-04T21:39:12.101Z,14.60
2017-09-04T21:41:39.194Z,14.30
2017-09-04T21:44:06.264Z,14.20
2017-09-04T21:46:32.537Z,14.20
2017-09-04T21:48:58.807Z,14.30
2017-09-04T21:51:25.058Z,14.30
2017-09-04T21:53:51.380Z,14.30
2017-09-04T21:56:17.689Z,14.20
2017-09-04T21:58:43.940Z,14.30
2017-09-04T22:01:10.659Z,14.20
2017-09-04T22:03:36.943Z,13.90
2017-09-04T22:06:03.236Z,13.80
2017-09-04T22:08:29.536Z,13.80
2017-09-04T22:10:56.613Z,13.80
2017-09-04T22:13:22.913Z,13.50
2017-09-04T22:15:50.963Z,13.40
2017-09-04T22:18:17.275Z,13.50
2017-09-04T22:20:43.588Z,13.60
2017-09-04T22:23:09.857Z,13.80
2017-09-04T22:25:36.133Z,13.70
2017-09-04T22:28:02.409Z,13.70
2017-09-04T22:30:28.690Z,13.70
2017-09-04T22:32:54.993Z,13.80
2017-09-04T22:35:22.077Z,13.50
2017-09-04T22:37:49.332Z,13.00
2017-09-04T22:40:15.622Z,13.20
2017-09-04T22:42:41.897Z,13.40
2017-09-04T22:45:08.178Z,13.50
2017-09-04T22:47:34.547Z,13.50
2017-09-04T22:50:00.846Z,13.80
2017-09-04T22:52:27.133Z,13.80
2017-09-04T22:54:53.409Z,13.60
2017-09-04T22:57:19.704Z,13.40
2017-09-04T22:59:45.990Z,13.30
2017-09-04T23:02:12.273Z,13.30
2017-09-04T23:04:38.766Z,13.30
2017-09-04T23:07:05.088Z,13.40
2017-09-04T23:09:31.401Z,13.30
2017-09-04T23:11:57.688Z,13.10
2017-09-04T23:14:23.991Z,12.60
2017-09-04T23:16:50.251Z,12.60
2017-09-04T23:19:16.528Z,12.80
2017-09-04T23:21:42.807Z,12.80
2017-09-04T23:24:09.097Z,12.90
2017-09-04T23:26:35.345Z,13.20
2017-09-04T23:29:01.652Z,13.20
2017-09-04T23:31:27.899Z,13.10
2017-09-04T23:33:54.231Z,12.90
2017-09-04T23:36:20.506Z,12.90
2017-09-04T23:38:46.805Z,12.70
2017-09-04T23:41:14.028Z,13.10
2017-09-04T23:43:40.327Z,12.90
2017-09-04T23:46:06.639Z,12.70
2017-09-04T23:48:32.893Z,12.70
2017-09-04T23:51:00.186Z,12.60
2017-09-04T23:53:26.473Z,12.60
2017-09-04T23:55:53.497Z,12.60
2017-09-04T23:58:20.774Z,12.80
